Архив погоды в Бестяхской Звероферме

Метеограмма Бестяхская Звероферма
Пятница, 24 Мая
Время местн. Темп Ветер Видим Явления Облачность нижн/средн/верх Атм. давл. Влжн Точка росы ВНГО R Сост. почвы Tg s
Напр Скр Прв ур.ст ур.м изм
15:00 +16.2° В,Ю-В 2 - 50 км - облачно 741 748 -0.1 42% +3.4° 1 км - - - -
12:00 +17.4° Ю,Ю-З 3 - более 50 км - облачно 742 748 -0.2 39% +3.4° 1 км - - - -
09:00 +11° Ю-В 1 - 50 км - облачно 742 748 +0.5 60% +3.5° 1 км 0 Влажная (без луж) - -
06:00 +5.2° В 1 - 50 км - облачно 741 748 +0.4 78% +1.7° - - - - -
03:00 +5.6° Ю 1 - более 50 км - облачно 741 748 +0.1 74% +1.3° 1 км - - - -
00:00 +8.6° С,С-В 1 - 50 км - облачно 741 747 +0.3 68% +3° 1 км - - - -
Четверг, 23 Мая
Время местн. Темп Ветер Видим Явления Облачность нижн/средн/верх Атм. давл. Влжн Точка росы ВНГО R Сост. почвы Tg s
Напр Скр Прв ур.ст ур.м изм
21:00 +13.5° штиль 0 - более 50 км - облачно 741 747 +0.7 52% +3.8° 1 км 0 - - -
18:00 +16.4° С 1 - 50 км - облачно 740 746 +0.5 33% +0.2° 1 км - - - -
15:00 +16.4° В 2 - 50 км - облачно 739 746 0 36% +1.5° 1 км - - - -
12:00 +16.1° В 2 - более 50 км - облачно 739 746 -0.1 40% +2.6° 1 км - - - -
09:00 +9.4° В,Ю-В 1 - 50 км - облачно 740 746 +0.2 57% +1.4° 1 км 0 Влажная (без луж) - -
06:00 +5.9° Ю-В 1 - более 50 км - облачно с прояснениями 739 746 +0.1 62% -0.7° 1 км - - - -
03:00 +5.7° В,Ю-В 1 - 50 км - облачно с прояснениями 739 746 -0.3 56% -2.3° - - - - -
00:00 +1.4° штиль 0 - более 50 км - облачно 740 746 -1.1 49% -8.2° 1 км - - - -
Среда, 22 Мая
Время местн. Темп Ветер Видим Явления Облачность нижн/средн/верх Атм. давл. Влжн Точка росы ВНГО R Сост. почвы Tg s
Напр Скр Прв ур.ст ур.м изм
21:00 +13.2° штиль 0 10 более 50 км - облачно с прояснениями 741 747 -1.1 22% -8.1° более 2.5 км 0 - - -
18:00 +16.6° Ю-В 4 10 50 км - облачно с прояснениями 742 748 -1.5 18% -7.8° более 2.5 км - - - -
15:00 +15° В,Ю-В 4 - 50 км - переменная облачность 743 750 -2.6 19% -8.1° более 2.5 км - - - -
12:00 +14° Ю-В 3 - 50 км - ясно 746 752 -1.7 21% -7.8° более 2.5 км - - - -
09:00 +9.7° Ю-В 3 - 50 км - ясно 747 754 -1.3 31% -6.6° более 2.5 км 0 Влажная (без луж) - -
06:00 +4.2° В 1 - более 50 км - ясно 749 755 -1.1 56% -3.7° более 2.5 км - - - -
03:00 -3.9° штиль 0 - 50 км - переменная облачность 750 757 -0.5 71% -8.4° более 2.5 км - - - -
00:00 -1° штиль 0 - 50 км - переменная облачность 750 757 -0.8 50% -10.2° - - - - -
Вторник, 21 Мая
Время местн. Темп Ветер Видим Явления Облачность нижн/средн/верх Атм. давл. Влжн Точка росы ВНГО R Сост. почвы Tg s
Напр Скр Прв ур.ст ур.м изм
21:00 +10.4° В,Ю-В 1 - 50 км - переменная облачность 751 758 -0.8 23% -9.8° более 2.5 км 0 - - -
18:00 +11.6° Ю-В 3 - более 50 км - переменная облачность 752 759 -0.8 21% -9.8° более 2.5 км - - - -
15:00 +11° Ю-В 3 - более 50 км - облачно с прояснениями 753 759 -0.8 26% -7.9° более 2.5 км - - - -
12:00 +9.6° Ю-В 3 - 50 км - облачно 753 760 -0.8 32% -6.3° 1.5 км - - - -